createdAt,value
2023-02-19T00:01:13.425Z,100794.88
2023-02-19T00:03:41.220Z,100803.03
2023-02-19T00:06:10.437Z,100793.66
2023-02-19T00:08:38.922Z,100763.09
2023-02-19T00:11:12.710Z,100745.25
2023-02-19T00:13:45.227Z,100752.34
2023-02-19T00:16:30.834Z,100760.47
2023-02-19T00:18:58.494Z,100767.06
2023-02-19T00:21:26.247Z,100760.72
2023-02-19T00:23:58.315Z,100784.06
2023-02-19T00:26:25.353Z,100800.13
2023-02-19T00:28:53.572Z,100782.41
2023-02-19T00:31:33.240Z,100809.38
2023-02-19T00:34:03.877Z,100801.34
2023-02-19T00:36:32.116Z,100786.84
2023-02-19T00:38:58.915Z,100791.28
2023-02-19T00:41:25.886Z,100778.56
2023-02-19T00:44:05.214Z,100747.97
2023-02-19T00:46:40.014Z,100781.69
2023-02-19T00:49:08.149Z,100775.09
2023-02-19T00:51:38.046Z,100775.31
2023-02-19T00:54:05.588Z,100769.31
2023-02-19T00:56:32.482Z,100783.56
2023-02-19T00:58:59.304Z,100778.53
2023-02-19T01:01:26.084Z,100780.81
2023-02-19T01:03:53.056Z,100785.50
2023-02-19T01:06:21.194Z,100789.69
2023-02-19T01:08:48.486Z,100769.78
2023-02-19T01:11:16.669Z,100786.19
2023-02-19T01:13:43.897Z,100776.38
2023-02-19T01:16:21.167Z,100766.03
2023-02-19T01:18:48.931Z,100785.59
2023-02-19T01:21:23.270Z,100786.91
2023-02-19T01:23:51.048Z,100785.22
2023-02-19T01:26:20.849Z,100762.09
2023-02-19T01:28:48.538Z,100756.94
2023-02-19T01:31:19.265Z,100774.34
2023-02-19T01:33:47.937Z,100768.94
2023-02-19T01:36:15.221Z,100747.13
2023-02-19T01:38:42.803Z,100768.50
2023-02-19T01:41:14.206Z,100770.31
2023-02-19T01:44:12.811Z,100761.91
2023-02-19T01:46:41.941Z,100760.59
2023-02-19T01:49:11.855Z,100754.13
2023-02-19T01:51:43.789Z,100769.56
2023-02-19T01:54:13.640Z,100763.22
2023-02-19T01:56:43.777Z,100773.41
2023-02-19T01:59:10.864Z,100770.88
2023-02-19T02:01:39.680Z,100768.38
2023-02-19T02:04:11.075Z,100773.53
2023-02-19T02:06:56.490Z,100768.88
2023-02-19T02:09:46.097Z,100742.97
2023-02-19T02:12:13.075Z,100739.25
2023-02-19T02:14:43.955Z,100740.00
2023-02-19T02:17:31.507Z,100721.88
2023-02-19T02:20:36.814Z,100715.91
2023-02-19T02:23:27.760Z,100718.78
2023-02-19T02:26:12.889Z,100719.84
2023-02-19T02:28:59.074Z,100732.66
2023-02-19T02:31:30.786Z,100757.31
2023-02-19T02:34:33.057Z,100774.56
2023-02-19T02:37:00.578Z,100759.72
2023-02-19T02:39:29.508Z,100723.44
2023-02-19T02:42:18.136Z,100746.31
2023-02-19T02:45:12.862Z,100741.06
2023-02-19T02:47:55.336Z,100747.03
2023-02-19T02:50:24.975Z,100748.72
2023-02-19T02:53:16.859Z,100746.09
2023-02-19T02:55:48.681Z,100724.50
2023-02-19T02:58:17.027Z,100749.56
2023-02-19T03:01:09.144Z,100751.94
2023-02-19T03:03:40.156Z,100756.16
2023-02-19T03:06:11.898Z,100750.88
2023-02-19T03:08:56.821Z,100748.47
2023-02-19T03:11:42.309Z,100749.22
2023-02-19T03:14:39.566Z,100729.69
2023-02-19T03:17:39.166Z,100738.53
2023-02-19T03:20:12.452Z,100749.34
2023-02-19T03:22:42.434Z,100751.25
2023-02-19T03:25:32.439Z,100760.84
2023-02-19T03:28:04.035Z,100733.16
2023-02-19T03:30:35.933Z,100742.25
2023-02-19T03:33:14.417Z,100750.53
2023-02-19T03:35:56.070Z,100740.94
2023-02-19T03:38:31.923Z,100753.16
2023-02-19T03:41:15.086Z,100751.38
2023-02-19T03:43:50.902Z,100752.19
2023-02-19T03:46:41.496Z,100733.72
2023-02-19T03:49:14.313Z,100739.00
2023-02-19T03:51:45.671Z,100753.88
2023-02-19T03:54:18.749Z,100716.03
2023-02-19T03:57:09.728Z,100742.63
2023-02-19T03:59:55.344Z,100754.13
2023-02-19T04:02:33.070Z,100739.88
2023-02-19T04:05:14.145Z,100738.19
2023-02-19T04:07:43.671Z,100742.97
2023-02-19T04:10:11.538Z,100731.34
2023-02-19T04:12:53.185Z,100758.91
2023-02-19T04:15:25.478Z,100765.63
2023-02-19T04:18:04.613Z,100741.06
2023-02-19T04:20:38.582Z,100759.28
2023-02-19T04:23:05.854Z,100767.06
2023-02-19T04:25:34.657Z,100773.19
2023-02-19T04:28:02.756Z,100774.38
2023-02-19T04:30:29.809Z,100775.81
2023-02-19T04:32:56.695Z,100777.34
2023-02-19T04:35:23.469Z,100774.97
2023-02-19T04:37:50.270Z,100772.81
2023-02-19T04:40:17.374Z,100755.75
2023-02-19T04:42:44.082Z,100741.75
2023-02-19T04:45:10.831Z,100744.16
2023-02-19T04:47:37.576Z,100730.59
2023-02-19T04:50:04.772Z,100757.56
2023-02-19T04:52:31.597Z,100747.50
2023-02-19T04:54:58.357Z,100730.72
2023-02-19T04:57:25.169Z,100752.41
2023-02-19T04:59:52.483Z,100749.50
2023-02-19T05:02:19.302Z,100748.78
2023-02-19T05:04:46.088Z,100748.91
2023-02-19T05:07:13.045Z,100751.53
2023-02-19T05:09:39.858Z,100738.00
2023-02-19T05:12:06.905Z,100752.59
2023-02-19T05:14:33.686Z,100742.78
2023-02-19T05:17:00.456Z,100740.50
2023-02-19T05:19:27.304Z,100732.47
2023-02-19T05:21:54.362Z,100731.84
2023-02-19T05:24:21.166Z,100736.41
2023-02-19T05:26:48.695Z,100729.59
2023-02-19T05:29:15.491Z,100738.44
2023-02-19T05:31:42.537Z,100747.28
2023-02-19T05:34:09.787Z,100753.03
2023-02-19T05:36:37.363Z,100749.59
2023-02-19T05:39:06.285Z,100765.38
2023-02-19T05:41:33.496Z,100719.47
2023-02-19T05:44:00.375Z,100741.44
2023-02-19T05:46:29.928Z,100717.84
2023-02-19T05:48:58.333Z,100725.75
2023-02-19T05:51:27.015Z,100725.88
2023-02-19T05:53:54.223Z,100734.13
2023-02-19T05:56:34.716Z,100721.31
2023-02-19T05:59:20.040Z,100721.34
2023-02-19T06:01:48.228Z,100742.81
2023-02-19T06:04:15.820Z,100742.38
2023-02-19T06:06:43.468Z,100732.66
2023-02-19T06:09:11.164Z,100719.84
2023-02-19T06:11:38.646Z,100742.97
2023-02-19T06:14:06.214Z,100749.22
2023-02-19T06:16:34.051Z,100751.00
2023-02-19T06:19:04.379Z,100750.53
2023-02-19T06:21:31.274Z,100738.53
2023-02-19T06:23:57.991Z,100737.94
2023-02-19T06:26:25.623Z,100731.09
2023-02-19T06:28:53.505Z,100743.56
2023-02-19T06:31:22.287Z,100728.47
2023-02-19T06:33:50.859Z,100737.81
2023-02-19T06:36:20.363Z,100731.72
2023-02-19T06:38:48.544Z,100735.19
2023-02-19T06:41:15.550Z,100706.44
2023-02-19T06:43:42.426Z,100705.00
2023-02-19T06:46:10.871Z,100715.75
2023-02-19T06:48:39.766Z,100705.22
2023-02-19T06:51:06.718Z,100724.03
2023-02-19T06:53:33.405Z,100716.38
2023-02-19T06:56:03.088Z,100719.34
2023-02-19T06:58:30.223Z,100736.84
2023-02-19T07:00:57.053Z,100722.59
2023-02-19T07:03:24.279Z,100717.81
2023-02-19T07:05:51.029Z,100705.84
2023-02-19T07:08:18.191Z,100696.13
2023-02-19T07:10:45.811Z,100724.88
2023-02-19T07:13:12.651Z,100718.16
2023-02-19T07:15:39.442Z,100714.94
2023-02-19T07:18:10.302Z,100674.56
2023-02-19T07:20:37.462Z,100711.44
2023-02-19T07:23:04.503Z,100690.84
2023-02-19T07:25:31.787Z,100711.22
2023-02-19T07:27:58.541Z,100704.25
2023-02-19T07:30:25.371Z,100719.97
2023-02-19T07:32:52.088Z,100730.50
2023-02-19T07:35:18.925Z,100717.94
2023-02-19T07:37:45.630Z,100689.75
2023-02-19T07:40:12.414Z,100710.06
2023-02-19T07:42:39.198Z,100713.75
2023-02-19T07:45:06.585Z,100708.47
2023-02-19T07:47:33.272Z,100690.00
2023-02-19T07:50:00.032Z,100683.75
2023-02-19T07:52:26.842Z,100662.03
2023-02-19T07:54:53.624Z,100672.38
2023-02-19T07:57:20.455Z,100676.13
2023-02-19T07:59:47.214Z,100680.44
2023-02-19T08:02:37.465Z,100707.63
2023-02-19T08:05:05.632Z,100713.16
2023-02-19T08:07:33.605Z,100704.34
2023-02-19T08:10:19.202Z,100718.84
2023-02-19T08:13:04.473Z,100708.69
2023-02-19T08:15:33.018Z,100721.63
2023-02-19T08:17:59.683Z,100715.91
2023-02-19T08:20:26.606Z,100720.56
2023-02-19T08:22:53.363Z,100712.78
2023-02-19T08:25:20.211Z,100709.44
2023-02-19T08:27:46.908Z,100692.38
2023-02-19T08:30:13.706Z,100691.66
2023-02-19T08:32:40.498Z,100695.69
2023-02-19T08:35:07.504Z,100690.34
2023-02-19T08:37:34.219Z,100693.19
2023-02-19T08:40:01.072Z,100676.84
2023-02-19T08:42:29.281Z,100670.91
2023-02-19T08:44:56.522Z,100668.59
2023-02-19T08:47:23.269Z,100681.34
2023-02-19T08:49:50.042Z,100677.94
2023-02-19T08:52:16.732Z,100656.59
2023-02-19T08:54:43.427Z,100674.31
2023-02-19T08:57:10.251Z,100651.25
2023-02-19T08:59:37.017Z,100636.13
2023-02-19T09:02:04.001Z,100664.41
2023-02-19T09:04:30.856Z,100653.84
2023-02-19T09:06:57.636Z,100669.16
2023-02-19T09:09:24.375Z,100657.44
2023-02-19T09:11:51.082Z,100672.22
2023-02-19T09:14:17.893Z,100639.09
2023-02-19T09:16:44.672Z,100692.03
2023-02-19T09:19:11.426Z,100654.59
2023-02-19T09:21:38.127Z,100698.22
2023-02-19T09:24:05.062Z,100673.91
2023-02-19T09:26:31.735Z,100660.47
2023-02-19T09:28:58.650Z,100675.28
2023-02-19T09:31:25.429Z,100671.22
2023-02-19T09:33:52.193Z,100691.13
2023-02-19T09:36:18.984Z,100695.84
2023-02-19T09:38:45.837Z,100699.03
2023-02-19T09:41:22.679Z,100689.69
2023-02-19T09:43:49.846Z,100686.75
2023-02-19T09:46:29.390Z,100704.75
2023-02-19T09:49:04.357Z,100682.88
2023-02-19T09:51:34.410Z,100680.03
2023-02-19T09:54:01.715Z,100671.81
2023-02-19T09:56:29.644Z,100674.63
2023-02-19T09:58:58.570Z,100675.59
2023-02-19T10:01:30.739Z,100668.22
2023-02-19T10:03:57.906Z,100663.06
2023-02-19T10:06:29.311Z,100670.50
2023-02-19T10:09:26.784Z,100658.25
2023-02-19T10:11:58.936Z,100667.13
2023-02-19T10:14:36.452Z,100660.03
2023-02-19T10:17:06.207Z,100669.53
2023-02-19T10:19:34.619Z,100669.78
2023-02-19T10:22:03.365Z,100676.75
2023-02-19T10:24:31.094Z,100663.41
2023-02-19T10:26:57.815Z,100656.31
2023-02-19T10:29:25.005Z,100674.44
2023-02-19T10:32:18.288Z,100670.25
2023-02-19T10:34:45.404Z,100650.03
2023-02-19T10:37:18.194Z,100658.66
2023-02-19T10:39:49.734Z,100655.06
2023-02-19T10:42:19.808Z,100646.53
2023-02-19T10:44:49.362Z,100641.47
2023-02-19T10:47:23.305Z,100634.03
2023-02-19T10:49:52.458Z,100628.69
2023-02-19T10:52:27.194Z,100624.16
2023-02-19T10:55:38.488Z,100632.75
2023-02-19T10:58:29.061Z,100629.31
2023-02-19T11:01:19.505Z,100640.91
2023-02-19T11:04:06.854Z,100631.53
2023-02-19T11:06:35.078Z,100617.94
2023-02-19T11:09:02.128Z,100604.59
2023-02-19T11:11:38.838Z,100576.13
2023-02-19T11:14:27.008Z,100601.56
2023-02-19T11:16:57.237Z,100599.13
2023-02-19T11:19:42.627Z,100578.19
2023-02-19T11:22:30.858Z,100566.81
2023-02-19T11:25:06.712Z,100575.00
2023-02-19T11:27:34.145Z,100580.47
2023-02-19T11:30:42.744Z,100563.44
2023-02-19T11:33:24.712Z,100561.56
2023-02-19T11:35:58.049Z,100523.88
2023-02-19T11:38:24.852Z,100538.19
2023-02-19T11:40:57.552Z,100555.06
2023-02-19T11:43:30.504Z,100553.09
2023-02-19T11:46:12.367Z,100563.22
2023-02-19T11:48:54.785Z,100559.03
2023-02-19T11:51:41.471Z,100554.34
2023-02-19T11:54:51.112Z,100551.63
2023-02-19T11:57:38.455Z,100564.97
2023-02-19T12:00:27.135Z,100551.06
2023-02-19T12:03:09.984Z,100544.72
2023-02-19T12:05:56.092Z,100570.72
2023-02-19T12:08:32.432Z,100582.00
2023-02-19T12:11:16.352Z,100566.16
2023-02-19T12:14:01.050Z,100571.00
2023-02-19T12:16:47.074Z,100567.25
2023-02-19T12:19:19.803Z,100556.00
2023-02-19T12:22:11.392Z,100553.13
2023-02-19T12:24:51.756Z,100550.91
2023-02-19T12:27:44.652Z,100556.63
2023-02-19T12:30:42.567Z,100562.13
2023-02-19T12:33:40.459Z,100574.63
2023-02-19T12:36:42.088Z,100567.31
2023-02-19T12:39:27.130Z,100579.19
2023-02-19T12:42:18.138Z,100575.44
2023-02-19T12:44:54.528Z,100575.28
2023-02-19T12:47:33.086Z,100565.34
2023-02-19T12:50:13.572Z,100563.97
2023-02-19T12:52:45.478Z,100568.25
2023-02-19T12:55:25.863Z,100561.13
2023-02-19T12:57:55.413Z,100560.69
2023-02-19T13:00:33.652Z,100559.34
2023-02-19T13:03:04.153Z,100550.78
2023-02-19T13:05:44.767Z,100558.75
2023-02-19T13:09:06.253Z,100555.66
2023-02-19T13:11:50.910Z,100557.47
2023-02-19T13:14:27.019Z,100556.81
2023-02-19T13:17:00.541Z,100543.63
2023-02-19T13:19:27.350Z,100568.59
2023-02-19T13:22:35.998Z,100567.81
2023-02-19T13:25:05.242Z,100565.16
2023-02-19T13:30:53.639Z,100574.16
2023-02-19T13:33:46.285Z,100566.50
2023-02-19T13:36:18.983Z,100561.72
2023-02-19T13:38:48.833Z,100568.03
2023-02-19T13:41:40.804Z,100567.88
2023-02-19T13:44:17.970Z,100534.88
2023-02-19T13:46:47.167Z,100545.88
2023-02-19T13:49:23.049Z,100564.22
2023-02-19T13:51:57.513Z,100577.72
2023-02-19T13:54:39.961Z,100577.72
2023-02-19T13:57:23.019Z,100575.19
2023-02-19T13:59:55.342Z,100581.03
2023-02-19T14:02:26.684Z,100592.66
2023-02-19T14:05:44.469Z,100598.63
2023-02-19T14:08:11.288Z,100573.34
2023-02-19T14:10:47.178Z,100590.97
2023-02-19T14:13:52.153Z,100596.81
2023-02-19T14:16:30.950Z,100589.19
2023-02-19T14:18:57.814Z,100605.81
2023-02-19T14:21:26.174Z,100601.66
2023-02-19T14:24:00.224Z,100595.69
2023-02-19T14:26:28.036Z,100587.22
2023-02-19T14:28:55.042Z,100600.00
2023-02-19T14:31:30.717Z,100604.19
2023-02-19T14:34:25.119Z,100601.34
2023-02-19T14:37:01.301Z,100595.50
2023-02-19T14:39:33.133Z,100590.19
2023-02-19T14:42:08.298Z,100587.81
2023-02-19T14:44:47.437Z,100596.41
2023-02-19T14:47:18.574Z,100569.81
2023-02-19T14:50:15.323Z,100590.00
2023-02-19T14:52:49.495Z,100583.22
2023-02-19T14:55:23.717Z,100602.16
2023-02-19T14:57:53.928Z,100594.16
2023-02-19T15:00:26.388Z,100601.44
2023-02-19T15:02:58.625Z,100597.75
2023-02-19T15:05:29.593Z,100596.91
2023-02-19T15:08:00.678Z,100575.53
2023-02-19T15:10:30.774Z,100601.47
2023-02-19T15:13:01.551Z,100610.94
2023-02-19T15:15:32.674Z,100595.59
2023-02-19T15:18:01.513Z,100599.84
2023-02-19T15:20:32.584Z,100606.78
2023-02-19T15:23:01.621Z,100631.56
2023-02-19T15:25:39.512Z,100630.38
2023-02-19T15:28:29.649Z,100614.53
2023-02-19T15:31:00.482Z,100640.31
2023-02-19T15:33:28.136Z,100631.84
2023-02-19T15:35:58.150Z,100615.97
2023-02-19T15:38:25.984Z,100631.69
2023-02-19T15:40:53.558Z,100628.53
2023-02-19T15:43:25.488Z,100635.69
2023-02-19T15:45:56.835Z,100626.41
2023-02-19T15:48:29.753Z,100630.78
2023-02-19T15:51:08.196Z,100632.78
2023-02-19T15:53:40.398Z,100643.25
2023-02-19T15:56:30.903Z,100647.59
2023-02-19T15:59:01.147Z,100648.09
2023-02-19T16:01:35.381Z,100654.09
2023-02-19T16:04:03.102Z,100649.97
2023-02-19T16:06:30.571Z,100650.13
2023-02-19T16:09:05.820Z,100655.50
2023-02-19T16:11:37.275Z,100634.84
2023-02-19T16:14:22.443Z,100657.63
2023-02-19T16:16:55.494Z,100657.09
2023-02-19T16:19:28.163Z,100653.03
2023-02-19T16:21:55.997Z,100672.34
2023-02-19T16:24:36.394Z,100668.31
2023-02-19T16:27:04.611Z,100675.03
2023-02-19T16:29:33.157Z,100690.94
2023-02-19T16:32:05.978Z,100695.53
2023-02-19T16:34:52.089Z,100690.25
2023-02-19T16:37:56.056Z,100691.88
2023-02-19T16:40:35.324Z,100705.91
2023-02-19T16:43:05.305Z,100696.41
2023-02-19T16:45:32.081Z,100695.19
2023-02-19T16:47:58.920Z,100707.13
2023-02-19T16:50:26.995Z,100724.78
2023-02-19T16:52:56.439Z,100728.03
2023-02-19T16:55:24.117Z,100741.22
2023-02-19T16:57:50.988Z,100753.81
2023-02-19T17:00:20.759Z,100744.88
2023-02-19T17:02:49.324Z,100768.16
2023-02-19T17:05:16.926Z,100756.88
2023-02-19T17:07:43.939Z,100769.25
2023-02-19T17:10:15.885Z,100774.56
2023-02-19T17:12:42.733Z,100784.41
2023-02-19T17:15:09.725Z,100789.06
2023-02-19T17:17:36.523Z,100793.25
2023-02-19T17:20:12.674Z,100775.66
2023-02-19T17:22:39.563Z,100796.47
2023-02-19T17:25:06.459Z,100800.03
2023-02-19T17:27:33.198Z,100799.16
2023-02-19T17:30:00.006Z,100804.72
2023-02-19T17:32:26.984Z,100805.63
2023-02-19T17:34:53.696Z,100798.19
2023-02-19T17:37:20.417Z,100797.22
2023-02-19T17:39:47.139Z,100813.75
2023-02-19T17:42:13.866Z,100814.94
2023-02-19T17:44:40.578Z,100821.63
2023-02-19T17:47:07.424Z,100829.34
2023-02-19T17:49:34.251Z,100816.88
2023-02-19T17:52:00.949Z,100828.56
2023-02-19T17:54:27.762Z,100837.09
2023-02-19T17:56:54.451Z,100832.53
2023-02-19T17:59:21.308Z,100842.13
2023-02-19T18:01:48.079Z,100826.13
2023-02-19T18:04:14.906Z,100851.09
2023-02-19T18:06:42.887Z,100864.91
2023-02-19T18:09:11.469Z,100868.28
2023-02-19T18:11:38.186Z,100878.66
2023-02-19T18:14:05.277Z,100889.97
2023-02-19T18:16:32.012Z,100872.00
2023-02-19T18:19:01.499Z,100893.19
2023-02-19T18:21:28.216Z,100897.69
2023-02-19T18:23:54.916Z,100901.88
2023-02-19T18:26:21.610Z,100907.19
2023-02-19T18:28:48.392Z,100921.44
2023-02-19T18:31:15.634Z,100929.41
2023-02-19T18:33:42.736Z,100933.91
2023-02-19T18:36:11.469Z,100933.19
2023-02-19T18:38:38.553Z,100943.56
2023-02-19T18:41:05.514Z,100948.75
2023-02-19T18:43:32.271Z,100943.88
2023-02-19T18:45:59.027Z,100940.28
2023-02-19T18:48:25.739Z,100973.91
2023-02-19T18:50:52.512Z,100977.19
2023-02-19T18:53:19.427Z,100986.84
2023-02-19T18:55:46.248Z,100982.91
2023-02-19T18:58:13.176Z,100996.75
2023-02-19T19:00:39.890Z,100988.34
2023-02-19T19:03:06.804Z,101015.31
2023-02-19T19:05:33.765Z,101016.84
2023-02-19T19:08:01.875Z,101025.63
2023-02-19T19:10:29.059Z,101025.47
2023-02-19T19:12:56.028Z,101025.72
2023-02-19T19:15:23.374Z,101040.50
2023-02-19T19:17:50.180Z,101051.66
2023-02-19T19:20:19.604Z,101046.94
2023-02-19T19:22:49.614Z,101038.69
2023-02-19T19:25:16.304Z,101065.69
2023-02-19T19:27:43.023Z,101069.25
2023-02-19T19:30:10.090Z,101029.47
2023-02-19T19:32:37.778Z,101064.53
2023-02-19T19:35:05.160Z,101036.56
2023-02-19T19:37:31.954Z,101062.56
2023-02-19T19:39:58.736Z,101062.56
2023-02-19T19:42:25.591Z,101046.19
2023-02-19T19:44:52.376Z,101068.44
2023-02-19T19:47:19.279Z,101063.25
2023-02-19T19:49:47.337Z,101069.09
2023-02-19T19:52:14.905Z,101027.88
2023-02-19T19:54:44.733Z,101085.13
2023-02-19T19:57:11.770Z,101065.09
2023-02-19T19:59:39.530Z,101088.84
2023-02-19T20:02:07.239Z,101073.75
2023-02-19T20:04:34.067Z,101084.28
2023-02-19T20:07:00.924Z,101075.59
2023-02-19T20:09:29.166Z,101062.75
2023-02-19T20:11:56.267Z,101038.59
2023-02-19T20:14:24.575Z,101065.94
2023-02-19T20:16:51.459Z,101084.16
2023-02-19T20:19:20.111Z,101086.28
2023-02-19T20:21:48.543Z,101093.00
2023-02-19T20:24:24.952Z,101088.44
2023-02-19T20:26:58.484Z,101049.16
2023-02-19T20:29:33.756Z,101090.75
2023-02-19T20:32:02.595Z,101103.06
2023-02-19T20:34:30.412Z,101087.53
2023-02-19T20:36:57.605Z,101097.59
2023-02-19T20:39:28.741Z,101096.63
2023-02-19T20:41:57.395Z,101083.94
2023-02-19T20:44:25.807Z,101085.34
2023-02-19T20:46:53.455Z,101104.44
2023-02-19T20:49:23.077Z,101098.47
2023-02-19T20:52:03.577Z,101108.19
2023-02-19T20:54:32.469Z,101115.19
2023-02-19T20:57:02.312Z,101121.84
2023-02-19T20:59:34.928Z,101101.09
2023-02-19T21:02:04.244Z,101115.31
2023-02-19T21:04:31.528Z,101112.25
2023-02-19T21:06:58.534Z,101120.59
2023-02-19T21:09:25.328Z,101114.63
2023-02-19T21:11:53.092Z,101134.88
2023-02-19T21:14:19.848Z,101131.53
2023-02-19T21:16:46.769Z,101137.91
2023-02-19T21:19:13.557Z,101119.28
2023-02-19T21:21:40.489Z,101149.41
2023-02-19T21:24:07.669Z,101146.94
2023-02-19T21:26:36.481Z,101137.69
2023-02-19T21:29:04.714Z,101146.41
2023-02-19T21:31:43.579Z,101143.47
2023-02-19T21:34:13.076Z,101144.81
2023-02-19T21:36:40.468Z,101149.25
2023-02-19T21:39:08.920Z,101153.75
2023-02-19T21:41:36.031Z,101152.75
2023-02-19T21:44:03.319Z,101160.97
2023-02-19T21:46:30.087Z,101157.75
2023-02-19T21:48:57.231Z,101143.00
2023-02-19T21:51:33.662Z,101158.44
2023-02-19T21:54:00.591Z,101157.97
2023-02-19T21:56:29.966Z,101155.22
2023-02-19T21:58:56.761Z,101161.09
2023-02-19T22:01:29.154Z,101151.84
2023-02-19T22:03:55.898Z,101156.75
2023-02-19T22:06:29.073Z,101138.75
2023-02-19T22:08:56.167Z,101148.47
2023-02-19T22:11:22.875Z,101134.41
2023-02-19T22:13:49.972Z,101156.28
2023-02-19T22:16:17.452Z,101156.16
2023-02-19T22:18:52.557Z,101150.84
2023-02-19T22:21:20.470Z,101150.50
2023-02-19T22:23:48.823Z,101149.94
2023-02-19T22:26:26.572Z,101148.03
2023-02-19T22:28:53.479Z,101147.84
2023-02-19T22:31:22.253Z,101163.38
2023-02-19T22:33:49.348Z,101168.81
2023-02-19T22:36:24.925Z,101163.25
2023-02-19T22:38:52.535Z,101171.47
2023-02-19T22:41:20.810Z,101158.88
2023-02-19T22:43:47.953Z,101189.44
2023-02-19T22:46:18.432Z,101200.34
2023-02-19T22:48:45.586Z,101203.97
2023-02-19T22:51:14.516Z,101214.56
2023-02-19T22:53:51.296Z,101234.28
2023-02-19T22:56:19.710Z,101212.66
2023-02-19T22:58:46.699Z,101230.19
2023-02-19T23:01:14.611Z,101239.78
2023-02-19T23:03:58.882Z,101224.19
2023-02-19T23:06:27.191Z,101250.75
2023-02-19T23:08:55.410Z,101254.59
2023-02-19T23:11:31.756Z,101236.91
2023-02-19T23:13:59.358Z,101239.47
2023-02-19T23:16:26.623Z,101256.66
2023-02-19T23:18:54.131Z,101261.34
2023-02-19T23:21:21.982Z,101249.06
2023-02-19T23:23:48.955Z,101259.19
2023-02-19T23:26:16.789Z,101248.34
2023-02-19T23:28:44.549Z,101260.72
2023-02-19T23:31:12.690Z,101246.66
2023-02-19T23:33:40.159Z,101269.13
2023-02-19T23:36:08.106Z,101256.50
2023-02-19T23:38:34.924Z,101248.56
2023-02-19T23:41:02.270Z,101266.22
2023-02-19T23:43:29.407Z,101273.28
2023-02-19T23:45:56.270Z,101269.00
2023-02-19T23:48:23.309Z,101288.56
2023-02-19T23:50:50.113Z,101292.91
2023-02-19T23:53:17.065Z,101288.69
2023-02-19T23:55:44.002Z,101301.00
2023-02-19T23:58:10.846Z,101295.56
